SJC weather

Norman Y. Mineta San Jose International Airport
San Jose, California, United States

Public forecast

Using degrees Fahrenheit for public forecast. Weather courtesy of forecast.io.

Current aviation weather report (METAR) for Norman Y. Mineta San Jose International Airport

Retrieved 2020/07/08 06:53 UTC (57 minutes ago):

KSJC 080653Z 34004KT 10SM CLR 16/11 A2990 RMK AO2 SLP125 LAST T01560111

Aviation forecast (TAF) for Norman Y. Mineta San Jose International Airport

Retrieved 2020/07/08 06:34 UTC (1 hour ago):

TAF KSJC 080532Z 0806/0906 32005KT P6SM SKC FM081000 VRB04KT P6SM FEW015 FM082100 31011KT P6SM SKC FM090400 31006KT P6SM FEW200